Time;durP1;ratioP1;P1;durP2;ratioP2;P2;SDS_P1;SDS_P2;PMS_P1;PMS_P2;Temp;Humidity;BMP_temperature;BMP_pressure;BME280_temperature;BME280_humidity;BME280_pressure;Samples;Min_cycle;Max_cycle;Signal;HPM_P1;HPM_P2
2023/11/02 00:01:11;;;;;;;1.10;0.93;;;;;;;7.13;100.00;96588.53;5077438;28;20285;-82
2023/11/02 00:03:40;;;;;;;1.30;0.80;;;;;;;7.09;100.00;96585.31;5076390;28;20208;-82
2023/11/02 00:06:21;;;;;;;2.20;0.90;;;;;;;7.12;100.00;96577.22;5077162;28;20210;-82
2023/11/02 00:09:14;;;;;;;1.60;1.00;;;;;;;7.17;100.00;96569.81;5077089;28;20190;-83
2023/11/02 00:11:51;;;;;;;1.70;1.03;;;;;;;7.20;100.00;96564.28;5077576;28;20234;-83
2023/11/02 00:14:19;;;;;;;1.20;1.10;;;;;;;7.21;100.00;96554.63;5085356;28;20209;-82
2023/11/02 00:16:45;;;;;;;1.10;1.00;;;;;;;7.21;100.00;96546.75;5085384;28;20314;-82
2023/11/02 00:19:23;;;;;;;1.30;1.00;;;;;;;7.18;100.00;96533.84;5086113;28;20221;-83
2023/11/02 00:21:50;;;;;;;1.27;1.10;;;;;;;7.10;100.00;96529.22;5084798;28;20226;-82
2023/11/02 00:24:18;;;;;;;1.50;1.30;;;;;;;7.03;100.00;96520.16;5079800;28;20205;-81
2023/11/02 00:26:44;;;;;;;1.20;1.00;;;;;;;7.04;100.00;96515.75;5080177;28;20208;-81
2023/11/02 00:29:11;;;;;;;1.30;1.20;;;;;;;7.07;100.00;96511.06;5080137;28;20589;-82
2023/11/02 00:31:39;;;;;;;3.20;1.40;;;;;;;7.11;100.00;96511.66;5080533;28;20226;-81
2023/11/02 00:34:05;;;;;;;1.20;1.10;;;;;;;7.12;100.00;96514.16;5080876;28;20209;-82
2023/11/02 00:36:32;;;;;;;1.97;1.40;;;;;;;7.13;100.00;96505.31;5081038;28;20218;-82
2023/11/02 00:38:58;;;;;;;1.63;1.30;;;;;;;7.13;100.00;96497.44;5079179;28;20205;-82
2023/11/02 00:41:26;;;;;;;1.80;1.10;;;;;;;7.08;100.00;96486.47;5078888;28;20227;-82
2023/11/02 00:43:53;;;;;;;1.80;1.40;;;;;;;7.03;100.00;96477.31;5077790;28;20214;-81
2023/11/02 00:46:20;;;;;;;2.77;1.63;;;;;;;6.92;100.00;96470.31;5077742;28;20590;-81
2023/11/02 00:48:49;;;;;;;2.30;1.90;;;;;;;6.90;100.00;96466.13;5079331;28;20222;-81
2023/11/02 00:51:19;;;;;;;1.47;1.37;;;;;;;6.83;100.00;96459.72;5080838;28;20599;-81
2023/11/02 00:53:49;;;;;;;1.67;1.27;;;;;;;6.75;100.00;96451.59;5078441;28;20266;-81
2023/11/02 00:56:17;;;;;;;1.30;1.20;;;;;;;6.73;100.00;96446.47;5077673;28;20218;-81
2023/11/02 00:58:47;;;;;;;2.00;1.10;;;;;;;6.73;100.00;96454.34;5078320;28;20210;-81
2023/11/02 01:01:15;;;;;;;1.47;1.00;;;;;;;6.81;100.00;96459.81;5077410;28;20269;-81
2023/11/02 01:03:46;;;;;;;1.97;1.00;;;;;;;6.83;100.00;96460.53;5077102;28;20211;-82
2023/11/02 01:06:17;;;;;;;1.20;0.90;;;;;;;6.88;100.00;96454.91;5077265;28;20658;-81
2023/11/02 01:08:43;;;;;;;1.50;1.00;;;;;;;6.89;100.00;96449.53;5076797;28;20269;-81
2023/11/02 01:11:10;;;;;;;1.10;1.00;;;;;;;6.91;100.00;96465.16;5076988;28;20280;-81
2023/11/02 01:13:37;;;;;;;0.80;0.80;;;;;;;6.92;100.00;96444.03;5074250;28;20285;-82
2023/11/02 01:16:08;;;;;;;1.20;0.80;;;;;;;6.94;100.00;96439.50;5074169;28;20225;-82
2023/11/02 01:18:35;;;;;;;1.40;0.90;;;;;;;7.01;100.00;96438.03;5074031;28;20206;-82
2023/11/02 01:21:03;;;;;;;2.37;1.03;;;;;;;7.03;100.00;96422.97;5074445;28;20249;-82
2023/11/02 01:23:32;;;;;;;1.77;1.10;;;;;;;7.04;100.00;96411.53;5073944;28;20208;-81
2023/11/02 01:26:00;;;;;;;2.00;1.20;;;;;;;7.06;100.00;96408.75;5074457;28;20666;-81
2023/11/02 01:28:49;;;;;;;1.87;1.30;;;;;;;6.94;100.00;96400.09;5074756;28;20214;-82
2023/11/02 01:31:17;;;;;;;1.37;1.20;;;;;;;6.89;100.00;96381.25;5074462;28;20227;-82
2023/11/02 01:33:58;;;;;;;2.60;1.40;;;;;;;6.83;100.00;96373.88;5074296;28;20230;-81
2023/11/02 01:36:34;;;;;;;1.40;1.30;;;;;;;6.75;100.00;96355.31;5074537;28;20208;-81
2023/11/02 01:39:08;;;;;;;1.87;1.60;;;;;;;6.67;100.00;96351.66;5074046;28;20222;-82
2023/11/02 01:41:44;;;;;;;2.03;1.33;;;;;;;6.58;100.00;96345.34;5072926;28;20678;-81
2023/11/02 01:44:19;;;;;;;1.60;1.30;;;;;;;6.53;100.00;96339.66;5074154;28;20186;-81
2023/11/02 01:46:55;;;;;;;2.33;1.30;;;;;;;6.49;100.00;96340.88;5074805;28;20212;-81
2023/11/02 01:49:39;;;;;;;1.50;1.40;;;;;;;6.52;100.00;96332.72;5073962;28;20222;-82
2023/11/02 01:52:20;;;;;;;1.93;1.30;;;;;;;6.58;100.00;96328.75;5074098;28;20494;-82
2023/11/02 01:54:56;;;;;;;1.83;1.10;;;;;;;6.68;100.00;96327.06;5074237;28;20660;-82
2023/11/02 01:57:37;;;;;;;1.73;1.27;;;;;;;6.79;100.00;96314.69;5074047;28;20209;-81
2023/11/02 02:00:05;;;;;;;1.17;1.00;;;;;;;6.87;100.00;96304.41;5073713;28;20298;-82
2023/11/02 02:02:40;;;;;;;2.20;1.03;;;;;;;6.97;100.00;96305.28;5073802;28;20231;-82
2023/11/02 02:05:14;;;;;;;1.57;1.47;;;;;;;7.01;100.00;96290.97;5074659;28;20191;-82
2023/11/02 02:07:50;;;;;;;1.20;1.00;;;;;;;7.11;100.00;96289.22;5074138;28;20191;-82
2023/11/02 02:10:27;;;;;;;1.20;1.10;;;;;;;7.16;100.00;96294.94;5074430;28;20214;-81
2023/11/02 02:13:05;;;;;;;1.07;0.90;;;;;;;7.27;100.00;96281.69;5074370;28;20236;-81
2023/11/02 02:15:36;;;;;;;1.17;0.90;;;;;;;7.30;100.00;96291.97;5075212;28;20221;-81
2023/11/02 02:18:07;;;;;;;1.10;1.00;;;;;;;7.33;100.00;96278.53;5074969;28;20727;-82
2023/11/02 02:20:35;;;;;;;1.50;1.00;;;;;;;7.38;100.00;96272.94;5074962;28;20194;-82
2023/11/02 02:23:08;;;;;;;1.83;0.90;;;;;;;7.41;100.00;96268.22;5075693;28;20203;-82
2023/11/02 02:25:46;;;;;;;1.43;1.20;;;;;;;7.49;100.00;96264.00;5077592;28;20643;-82
2023/11/02 02:28:33;;;;;;;1.03;0.93;;;;;;;7.55;100.00;96257.34;5081454;28;20212;-82
2023/11/02 02:31:20;;;;;;;1.17;1.00;;;;;;;7.64;100.00;96244.25;5081941;28;20226;-82
2023/11/02 02:34:13;;;;;;;1.10;1.00;;;;;;;7.61;100.00;96239.25;5081889;28;20240;-82
2023/11/02 02:36:51;;;;;;;1.10;1.00;;;;;;;7.65;100.00;96229.31;5082022;28;20216;-82
2023/11/02 02:39:21;;;;;;;1.43;1.00;;;;;;;7.67;100.00;96230.00;5082392;28;20213;-82
2023/11/02 02:41:52;;;;;;;1.13;1.00;;;;;;;7.64;100.00;96215.31;5082405;28;20227;-82
2023/11/02 02:44:22;;;;;;;1.57;1.13;;;;;;;7.70;100.00;96211.31;5081268;28;20239;-81
2023/11/02 02:46:49;;;;;;;1.70;1.20;;;;;;;7.71;100.00;96205.13;5081528;28;20213;-82
2023/11/02 02:49:16;;;;;;;1.13;1.00;;;;;;;7.77;100.00;96192.22;5081232;28;20210;-82
2023/11/02 02:51:47;;;;;;;1.47;0.93;;;;;;;7.79;100.00;96194.75;5082423;28;20232;-82
2023/11/02 02:54:15;;;;;;;1.77;1.00;;;;;;;7.81;100.00;96190.16;5081606;28;20237;-82
2023/11/02 02:56:43;;;;;;;1.43;1.00;;;;;;;7.79;100.00;96184.22;5082255;28;20209;-82
2023/11/02 02:59:16;;;;;;;0.80;0.80;;;;;;;7.82;100.00;96179.50;5082056;28;20249;-82
2023/11/02 03:01:46;;;;;;;2.20;1.07;;;;;;;7.85;100.00;96160.81;5081602;28;20233;-82
2023/11/02 03:04:16;;;;;;;1.20;1.10;;;;;;;7.77;100.00;96181.72;5081229;28;20213;-82
2023/11/02 03:06:47;;;;;;;1.87;1.13;;;;;;;7.80;100.00;96202.50;5080475;28;20209;-82
2023/11/02 03:09:15;;;;;;;2.57;1.23;;;;;;;7.80;100.00;96199.03;5080532;28;20207;-82
2023/11/02 03:11:44;;;;;;;1.23;1.03;;;;;;;7.89;100.00;96190.34;5080470;28;20230;-82
2023/11/02 03:14:12;;;;;;;2.43;1.20;;;;;;;7.93;100.00;96165.41;5079716;28;20574;-81
2023/11/02 03:16:40;;;;;;;1.33;1.13;;;;;;;8.17;100.00;96131.63;5080534;28;20225;-82
2023/11/02 03:19:07;;;;;;;1.40;1.30;;;;;;;8.19;100.00;96161.25;5079722;28;20211;-82
2023/11/02 03:21:33;;;;;;;2.40;1.17;;;;;;;8.20;100.00;96184.00;5078784;28;20240;-82
2023/11/02 03:24:11;;;;;;;1.63;1.00;;;;;;;8.26;100.00;96193.97;5079667;28;20216;-82
2023/11/02 03:26:50;;;;;;;1.97;1.50;;;;;;;8.33;100.00;96205.63;5080756;28;20734;-82
2023/11/02 03:29:25;;;;;;;1.77;1.23;;;;;;;8.42;100.00;96168.75;5080234;28;20201;-82
2023/11/02 03:31:59;;;;;;;1.97;1.17;;;;;;;8.47;100.00;96160.44;5079811;28;20237;-82
2023/11/02 03:34:34;;;;;;;2.20;1.30;;;;;;;8.51;100.00;96182.88;5079392;28;20736;-82
2023/11/02 03:37:15;;;;;;;1.57;1.17;;;;;;;8.60;100.00;96160.97;5080711;28;20216;-82
2023/11/02 03:40:03;;;;;;;1.00;0.90;;;;;;;8.61;100.00;96136.28;5080662;28;20212;-82
2023/11/02 03:42:40;;;;;;;1.53;1.03;;;;;;;8.65;100.00;96142.94;5081160;28;20291;-82
2023/11/02 03:45:09;;;;;;;1.20;1.10;;;;;;;8.61;100.00;96141.56;5081938;28;20251;-82
2023/11/02 03:47:57;;;;;;;1.53;1.20;;;;;;;8.59;100.00;96138.25;5082210;28;20227;-82
2023/11/02 03:50:39;;;;;;;2.30;1.23;;;;;;;8.55;100.00;96150.00;5083150;28;20243;-82
2023/11/02 03:53:13;;;;;;;1.13;1.03;;;;;;;8.54;100.00;96140.47;5080429;28;20226;-83
2023/11/02 03:55:51;;;;;;;1.40;1.00;;;;;;;8.49;100.00;96134.78;5081401;28;20193;-82
2023/11/02 03:58:31;;;;;;;1.83;1.10;;;;;;;8.51;100.00;96119.69;5080707;28;20266;-82
2023/11/02 04:01:21;;;;;;;2.03;1.17;;;;;;;8.55;100.00;96094.72;5079648;28;20261;-82
2023/11/02 04:03:51;;;;;;;2.43;1.30;;;;;;;8.61;100.00;96062.56;5080476;28;20563;-82
2023/11/02 04:06:20;;;;;;;1.67;1.20;;;;;;;8.53;100.00;96054.56;5079786;28;20245;-82
2023/11/02 04:08:50;;;;;;;1.20;1.10;;;;;;;8.53;100.00;96033.50;5079069;28;20211;-82
2023/11/02 04:11:27;;;;;;;2.63;1.20;;;;;;;8.41;100.00;96029.41;5080120;28;20235;-82
2023/11/02 04:14:09;;;;;;;1.70;1.23;;;;;;;8.34;100.00;96037.03;5078446;28;20225;-82
2023/11/02 04:16:36;;;;;;;1.90;1.50;;;;;;;8.44;100.00;96006.25;5079425;28;20225;-82
2023/11/02 04:19:04;;;;;;;1.70;1.10;;;;;;;8.53;100.00;95976.44;5079697;28;20555;-82
2023/11/02 04:21:30;;;;;;;2.07;1.30;;;;;;;8.48;100.00;95962.03;5079693;28;20230;-82
2023/11/02 04:23:57;;;;;;;1.83;1.30;;;;;;;8.43;100.00;95943.22;5081163;28;20210;-82
2023/11/02 04:26:25;;;;;;;1.33;1.23;;;;;;;8.33;100.00;95937.19;5081435;28;20258;-82
2023/11/02 04:28:50;;;;;;;2.13;1.10;;;;;;;8.19;100.00;95934.97;5082539;28;20232;-82
2023/11/02 04:31:17;;;;;;;1.13;0.93;;;;;;;8.11;100.00;95921.72;5081181;28;20229;-82
2023/11/02 04:33:44;;;;;;;2.30;1.00;;;;;;;8.10;100.00;95893.78;5080416;28;20245;-82
2023/11/02 04:36:10;;;;;;;2.03;1.10;;;;;;;8.15;100.00;95888.91;5079409;28;20204;-82
2023/11/02 04:38:37;;;;;;;1.40;1.10;;;;;;;8.17;100.00;95893.06;5079670;28;20221;-82
2023/11/02 04:41:04;;;;;;;1.40;1.30;;;;;;;8.20;100.00;95889.34;5080206;28;20241;-82
2023/11/02 04:43:32;;;;;;;1.70;1.17;;;;;;;8.23;100.00;95878.50;5080159;28;20215;-82
2023/11/02 04:45:58;;;;;;;2.43;1.20;;;;;;;8.27;100.00;95872.00;5080545;28;20219;-82
2023/11/02 04:48:25;;;;;;;3.43;1.70;;;;;;;8.37;100.00;95859.59;5081802;28;20236;-82
2023/11/02 04:50:55;;;;;;;1.87;1.20;;;;;;;8.41;100.00;95860.97;5080719;28;20231;-82
2023/11/02 04:53:21;;;;;;;1.50;1.20;;;;;;;8.45;100.00;95862.31;5081191;28;20228;-82
2023/11/02 04:55:48;;;;;;;1.07;0.97;;;;;;;8.44;100.00;95829.91;5082374;28;20240;-82
2023/11/02 04:58:14;;;;;;;1.20;1.07;;;;;;;8.49;100.00;95817.13;5081380;28;20209;-82
2023/11/02 05:00:42;;;;;;;1.70;1.13;;;;;;;8.43;100.00;95832.69;5082201;28;20226;-82
2023/11/02 05:03:09;;;;;;;1.93;1.17;;;;;;;8.42;100.00;95828.38;5081558;28;20681;-82
2023/11/02 05:05:35;;;;;;;1.47;1.10;;;;;;;8.39;100.00;95852.38;5081806;28;20207;-83
2023/11/02 05:08:02;;;;;;;1.20;1.07;;;;;;;8.36;100.00;95878.97;5083067;28;20221;-83
2023/11/02 05:10:30;;;;;;;2.00;1.40;;;;;;;8.34;100.00;95852.00;5083717;28;20241;-82
2023/11/02 05:12:56;;;;;;;1.73;1.17;;;;;;;8.44;100.00;95840.44;5083140;28;20679;-82
2023/11/02 05:15:23;;;;;;;1.77;1.20;;;;;;;8.41;100.00;95827.59;5083126;28;20292;-82
2023/11/02 05:17:51;;;;;;;2.50;1.40;;;;;;;8.39;100.00;95802.38;5083164;28;20210;-82
2023/11/02 05:20:18;;;;;;;1.27;1.17;;;;;;;8.35;100.00;95809.75;5081834;28;20598;-82
2023/11/02 05:22:44;;;;;;;1.23;1.10;;;;;;;8.42;100.00;95788.91;5082898;28;20229;-82
2023/11/02 05:25:11;;;;;;;1.70;1.30;;;;;;;8.41;100.00;95787.25;5083504;28;20260;-82
2023/11/02 05:27:37;;;;;;;0.90;0.90;;;;;;;8.40;100.00;95796.94;5083959;28;20209;-82
2023/11/02 05:30:06;;;;;;;1.67;1.20;;;;;;;8.41;100.00;95771.47;5083838;28;20207;-82
2023/11/02 05:32:32;;;;;;;1.30;1.20;;;;;;;8.39;100.00;95755.03;5083272;28;20255;-82
2023/11/02 05:35:00;;;;;;;2.00;1.10;;;;;;;8.43;100.00;95732.66;5083443;28;20237;-82
2023/11/02 05:37:26;;;;;;;1.50;1.13;;;;;;;8.44;100.00;95734.34;5083815;28;20214;-82
2023/11/02 05:39:54;;;;;;;1.37;1.23;;;;;;;8.40;100.00;95733.78;5084175;28;20224;-82
2023/11/02 05:42:20;;;;;;;1.30;1.20;;;;;;;8.40;100.00;95725.09;5084015;28;20766;-82
2023/11/02 05:44:47;;;;;;;5.47;1.23;;;;;;;8.47;100.00;95707.72;5083978;28;20205;-83
2023/11/02 05:47:14;;;;;;;1.47;1.20;;;;;;;8.47;100.00;95708.53;5084457;28;20210;-82
2023/11/02 05:49:40;;;;;;;1.50;1.37;;;;;;;8.52;100.00;95713.34;5084914;28;20210;-82
2023/11/02 05:52:08;;;;;;;1.10;1.00;;;;;;;8.54;100.00;95700.84;5084147;28;20241;-82
2023/11/02 05:54:35;;;;;;;1.20;1.03;;;;;;;8.61;100.00;95709.78;5084248;28;20229;-82
2023/11/02 05:57:01;;;;;;;1.00;0.93;;;;;;;8.67;100.00;95722.34;5084886;28;20704;-82
2023/11/02 05:59:28;;;;;;;2.03;1.10;;;;;;;8.68;100.00;95726.63;5085100;28;20237;-82
2023/11/02 06:01:55;;;;;;;1.30;1.20;;;;;;;8.73;100.00;95734.91;5085827;28;20234;-82
2023/11/02 06:04:21;;;;;;;2.10;1.07;;;;;;;8.78;100.00;95753.72;5089552;28;20290;-82
2023/11/02 06:06:48;;;;;;;1.73;1.00;;;;;;;8.82;100.00;95771.69;5088694;28;20211;-82
2023/11/02 06:09:17;;;;;;;2.47;1.40;;;;;;;8.87;100.00;95779.13;5089380;28;20296;-82
2023/11/02 06:11:43;;;;;;;1.23;1.13;;;;;;;8.89;100.00;95792.97;5089768;28;20261;-82
2023/11/02 06:14:10;;;;;;;1.43;1.30;;;;;;;8.96;100.00;95815.09;5091776;28;20234;-82
2023/11/02 06:16:36;;;;;;;1.40;1.30;;;;;;;8.99;100.00;95841.16;5090943;28;20222;-82
2023/11/02 06:19:03;;;;;;;2.20;1.10;;;;;;;8.99;100.00;95856.94;5090648;28;20241;-82
2023/11/02 06:21:29;;;;;;;1.73;1.30;;;;;;;8.96;100.00;95873.88;5089319;28;20663;-82
2023/11/02 06:23:56;;;;;;;3.77;1.57;;;;;;;9.01;100.00;95897.94;5081152;28;20204;-83
2023/11/02 06:26:24;;;;;;;2.60;1.70;;;;;;;8.89;100.00;95903.59;5080647;28;20221;-83
2023/11/02 06:28:50;;;;;;;2.17;1.60;;;;;;;8.83;100.00;95898.94;5078744;28;20272;-83
2023/11/02 06:31:17;;;;;;;1.40;1.30;;;;;;;8.81;100.00;95898.25;5079877;28;20228;-82
2023/11/02 06:33:43;;;;;;;1.47;1.37;;;;;;;8.80;100.00;95892.16;5081623;28;20213;-83
2023/11/02 06:36:10;;;;;;;1.87;1.20;;;;;;;8.78;100.00;95893.28;5086191;28;20214;-82
2023/11/02 06:38:37;;;;;;;1.10;1.00;;;;;;;8.74;100.00;95894.53;5086619;28;20207;-82
2023/11/02 06:41:05;;;;;;;1.40;1.30;;;;;;;8.71;100.00;95873.78;5086041;28;20244;-82
2023/11/02 06:43:32;;;;;;;1.47;1.20;;;;;;;8.70;100.00;95870.31;5086029;28;20285;-82
2023/11/02 06:45:59;;;;;;;1.63;1.17;;;;;;;8.71;100.00;95860.63;5085294;28;20228;-82
2023/11/02 06:48:26;;;;;;;1.63;1.40;;;;;;;8.73;100.00;95871.81;5083965;28;20213;-81
2023/11/02 06:50:53;;;;;;;1.10;1.00;;;;;;;8.76;100.00;95874.16;5083407;28;20632;-82
2023/11/02 06:53:19;;;;;;;2.30;1.27;;;;;;;8.78;100.00;95864.31;5083248;28;20742;-82
2023/11/02 06:55:46;;;;;;;2.47;1.23;;;;;;;8.80;100.00;95854.44;5082618;28;20234;-81
2023/11/02 06:58:12;;;;;;;1.17;1.00;;;;;;;8.80;100.00;95857.06;5083541;28;20208;-82
2023/11/02 07:00:41;;;;;;;1.63;1.20;;;;;;;8.80;100.00;95846.53;5082821;28;20219;-82
2023/11/02 07:03:08;;;;;;;1.30;1.20;;;;;;;8.79;100.00;95839.63;5082191;28;20209;-82
2023/11/02 07:05:35;;;;;;;1.40;1.20;;;;;;;8.76;100.00;95835.47;5083099;28;20264;-82
2023/11/02 07:08:02;;;;;;;2.10;1.30;;;;;;;8.80;100.00;95838.63;5082139;28;20548;-82
2023/11/02 07:10:28;;;;;;;1.47;1.37;;;;;;;8.78;100.00;95843.25;5081822;28;20691;-82
2023/11/02 07:12:55;;;;;;;5.30;1.53;;;;;;;8.74;100.00;95833.97;5077579;28;20225;-81
2023/11/02 07:15:22;;;;;;;2.17;1.80;;;;;;;8.74;100.00;95826.06;5076435;28;20253;-81
2023/11/02 07:17:51;;;;;;;1.77;1.57;;;;;;;8.74;100.00;95831.34;5077416;28;20215;-81
2023/11/02 07:20:18;;;;;;;1.90;1.70;;;;;;;8.76;100.00;95824.13;5077145;28;20215;-81
2023/11/02 07:22:44;;;;;;;1.93;1.80;;;;;;;8.76;100.00;95818.88;5077267;28;20642;-81
2023/11/02 07:25:11;;;;;;;2.50;1.70;;;;;;;8.77;100.00;95815.25;5076963;28;20202;-81
2023/11/02 07:27:37;;;;;;;2.70;1.90;;;;;;;8.78;100.00;95803.75;5078109;28;20671;-81
2023/11/02 07:30:05;;;;;;;2.77;1.80;;;;;;;8.78;100.00;95807.22;5077755;28;20207;-81
2023/11/02 07:32:32;;;;;;;2.97;1.90;;;;;;;8.81;100.00;95795.56;5077826;28;20224;-81
2023/11/02 07:35:00;;;;;;;2.20;1.97;;;;;;;8.81;100.00;95792.91;5077272;28;20230;-81
2023/11/02 07:37:27;;;;;;;3.40;2.00;;;;;;;8.85;100.00;95799.50;5076423;28;20218;-81
2023/11/02 07:39:54;;;;;;;3.17;1.90;;;;;;;8.81;100.00;95782.38;5076170;28;20738;-81
2023/11/02 07:42:20;;;;;;;3.40;1.70;;;;;;;8.79;100.00;95771.16;5076651;28;20231;-81
2023/11/02 07:44:47;;;;;;;4.93;2.53;;;;;;;8.84;100.00;95753.09;5075076;28;20240;-78
2023/11/02 07:47:13;;;;;;;4.00;2.07;;;;;;;8.79;100.00;95760.63;5076219;28;20210;-81
2023/11/02 07:49:40;;;;;;;2.97;2.13;;;;;;;8.81;100.00;95753.41;5076807;28;20703;-81
2023/11/02 07:52:08;;;;;;;3.47;2.20;;;;;;;8.78;100.00;95743.16;5075951;28;20230;-81
2023/11/02 07:54:38;;;;;;;3.80;1.90;;;;;;;8.81;100.00;95734.97;5075763;28;20233;-81
2023/11/02 07:57:07;;;;;;;1.83;1.70;;;;;;;8.84;100.00;95737.28;5075245;28;20657;-81
2023/11/02 07:59:34;;;;;;;2.97;2.00;;;;;;;8.86;100.00;95719.53;5075412;28;20573;-81
2023/11/02 08:02:02;;;;;;;1.80;1.50;;;;;;;8.86;100.00;95714.25;5076140;28;20251;-81
2023/11/02 08:04:28;;;;;;;1.93;1.70;;;;;;;8.88;100.00;95718.38;5075453;28;20202;-81
2023/11/02 08:06:55;;;;;;;2.93;1.80;;;;;;;8.90;100.00;95716.44;5075243;28;20288;-81
2023/11/02 08:09:23;;;;;;;1.90;1.53;;;;;;;8.92;100.00;95718.91;5074650;28;20219;-81
2023/11/02 08:11:49;;;;;;;1.90;1.70;;;;;;;8.91;100.00;95712.00;5074347;28;20235;-82
2023/11/02 08:14:17;;;;;;;3.47;1.73;;;;;;;8.93;100.00;95707.41;5074868;28;20210;-81
2023/11/02 08:16:43;;;;;;;1.80;1.67;;;;;;;8.96;100.00;95696.56;5074130;28;20221;-79
2023/11/02 08:19:10;;;;;;;1.87;1.60;;;;;;;8.94;100.00;95696.69;5072991;28;20206;-81
2023/11/02 08:21:36;;;;;;;2.97;1.80;;;;;;;8.95;100.00;95679.09;5072967;28;20607;-80
2023/11/02 08:24:03;;;;;;;1.83;1.70;;;;;;;9.01;100.00;95694.28;5073745;28;20611;-82
2023/11/02 08:26:31;;;;;;;1.60;1.47;;;;;;;8.99;100.00;95691.81;5075203;28;20210;-82
2023/11/02 08:28:58;;;;;;;2.17;1.77;;;;;;;9.01;100.00;95687.19;5075016;28;20210;-83
2023/11/02 08:31:25;;;;;;;3.27;1.70;;;;;;;9.00;100.00;95687.38;5075241;28;20667;-81
2023/11/02 08:33:51;;;;;;;5.77;2.30;;;;;;;8.99;100.00;95677.81;5074622;28;20231;-80
2023/11/02 08:36:18;;;;;;;3.33;2.00;;;;;;;9.01;100.00;95676.66;5075115;28;20238;-81
2023/11/02 08:38:45;;;;;;;3.23;1.90;;;;;;;9.00;100.00;95672.38;5073331;28;20214;-81
2023/11/02 08:41:22;;;;;;;3.00;2.27;;;;;;;9.05;100.00;95671.94;5074334;28;20714;-81
2023/11/02 08:43:51;;;;;;;4.57;2.40;;;;;;;9.09;100.00;95675.88;5073467;28;20206;-80
2023/11/02 08:46:18;;;;;;;5.00;3.60;;;;;;;9.14;100.00;95669.19;5056992;28;20294;-82
2023/11/02 08:48:45;;;;;;;6.47;4.10;;;;;;;9.12;100.00;95659.78;5058711;28;20438;-80
2023/11/02 08:51:13;;;;;;;7.47;4.70;;;;;;;9.11;100.00;95660.78;5063742;28;20458;-81
2023/11/02 08:53:39;;;;;;;5.17;3.83;;;;;;;9.11;100.00;95660.78;5062092;28;20215;-81
2023/11/02 08:56:09;;;;;;;5.40;3.47;;;;;;;9.14;100.00;95649.91;5060662;28;20233;-81
2023/11/02 08:58:40;;;;;;;4.60;3.43;;;;;;;9.12;100.00;95651.88;5061330;28;20237;-82
2023/11/02 09:01:08;;;;;;;4.33;3.10;;;;;;;9.11;100.00;95651.03;5062010;28;20244;-85
2023/11/02 09:03:35;;;;;;;3.40;2.80;;;;;;;9.14;100.00;95650.75;5062016;28;20233;-85
2023/11/02 09:06:02;;;;;;;3.33;2.53;;;;;;;9.13;100.00;95653.53;5061303;28;20211;-85
2023/11/02 09:08:29;;;;;;;3.47;2.60;;;;;;;9.15;100.00;95656.81;5062209;28;20269;-85
2023/11/02 09:10:55;;;;;;;2.73;2.07;;;;;;;9.17;100.00;95658.31;5059972;28;20236;-82
2023/11/02 09:13:22;;;;;;;2.10;1.87;;;;;;;9.20;100.00;95657.19;5061532;28;20219;-83
2023/11/02 09:15:48;;;;;;;3.87;2.07;;;;;;;9.20;100.00;95646.63;5064233;28;20225;-83
2023/11/02 09:18:16;;;;;;;2.40;1.77;;;;;;;9.25;100.00;95641.72;5064328;28;20592;-83
2023/11/02 09:20:43;;;;;;;3.23;1.97;;;;;;;9.31;100.00;95646.38;5062381;28;20206;-80
2023/11/02 09:23:10;;;;;;;4.47;1.90;;;;;;;9.30;100.00;95639.44;5063532;28;20205;-83
2023/11/02 09:25:36;;;;;;;3.67;2.10;;;;;;;9.31;100.00;95643.72;5063181;28;20207;-83
2023/11/02 09:28:04;;;;;;;2.63;1.80;;;;;;;9.33;100.00;95650.50;5060620;28;20215;-83
2023/11/02 09:30:31;;;;;;;2.37;1.80;;;;;;;9.34;100.00;95653.94;5056388;28;20251;-82
2023/11/02 09:32:57;;;;;;;3.37;2.00;;;;;;;9.31;100.00;95655.06;5054445;28;20209;-82
2023/11/02 09:35:25;;;;;;;3.53;1.77;;;;;;;9.35;100.00;95663.50;5055152;28;20231;-81
2023/11/02 09:37:52;;;;;;;2.43;1.70;;;;;;;9.39;100.00;95676.22;5057304;28;20579;-82
2023/11/02 09:40:19;;;;;;;2.23;1.63;;;;;;;9.37;100.00;95688.72;5057947;28;20220;-81
2023/11/02 09:42:45;;;;;;;1.60;1.33;;;;;;;9.40;100.00;95698.13;5057154;28;20301;-81
2023/11/02 09:45:13;;;;;;;1.97;1.50;;;;;;;9.34;100.00;95717.19;5057769;28;20207;-81
2023/11/02 09:47:40;;;;;;;1.70;1.23;;;;;;;9.35;100.00;95713.56;5057637;28;20214;-82
2023/11/02 09:50:08;;;;;;;2.13;1.40;;;;;;;9.35;100.00;95711.78;5057220;28;20215;-81
2023/11/02 09:52:36;;;;;;;1.60;1.20;;;;;;;9.38;100.00;95716.75;5057188;28;20334;-80
2023/11/02 09:55:04;;;;;;;1.90;1.53;;;;;;;9.42;100.00;95719.88;5061281;28;20241;-83
2023/11/02 09:57:32;;;;;;;1.60;1.30;;;;;;;9.45;100.00;95727.47;5060849;28;20427;-82
2023/11/02 09:59:58;;;;;;;2.13;1.53;;;;;;;9.51;100.00;95716.28;5060068;28;20214;-84
2023/11/02 10:02:25;;;;;;;2.43;1.40;;;;;;;9.50;100.00;95717.28;5060818;28;20384;-83
2023/11/02 10:04:52;;;;;;;2.50;1.40;;;;;;;9.56;100.00;95716.66;5059699;28;20213;-81
2023/11/02 10:07:19;;;;;;;1.47;1.37;;;;;;;9.61;100.00;95707.28;5060619;28;20245;-83
2023/11/02 10:09:49;;;;;;;1.70;1.50;;;;;;;9.66;100.00;95706.81;5060625;28;20677;-83
2023/11/02 10:12:15;;;;;;;2.20;1.30;;;;;;;9.69;100.00;95702.06;5060510;28;20230;-81
2023/11/02 10:14:50;;;;;;;2.80;1.50;;;;;;;9.74;100.00;95696.28;5060425;28;20582;-83
2023/11/02 10:17:18;;;;;;;1.57;1.20;;;;;;;9.81;100.00;95698.13;5060199;28;20214;-81
2023/11/02 10:19:44;;;;;;;2.43;1.77;;;;;;;9.87;100.00;95701.94;5060131;28;20204;-81
2023/11/02 10:22:11;;;;;;;3.90;1.60;;;;;;;9.93;100.00;95696.00;5060559;28;20245;-81
2023/11/02 10:24:37;;;;;;;2.17;1.90;;;;;;;9.97;100.00;95682.34;5060861;28;20215;-81
2023/11/02 10:27:06;;;;;;;2.00;1.33;;;;;;;9.97;100.00;95671.78;5061328;28;20681;-81
2023/11/02 10:29:34;;;;;;;2.10;1.20;;;;;;;10.05;100.00;95668.38;5060186;28;20239;-81
2023/11/02 10:32:01;;;;;;;1.60;1.00;;;;;;;10.08;100.00;95662.75;5061088;28;20231;-83
2023/11/02 10:34:27;;;;;;;3.40;0.90;;;;;;;10.11;100.00;95660.66;5060743;28;20294;-82
2023/11/02 10:36:56;;;;;;;2.17;1.00;;;;;;;10.14;100.00;95662.09;5059230;28;20235;-82
2023/11/02 10:39:24;;;;;;;1.73;1.07;;;;;;;10.18;100.00;95651.09;5060489;28;20205;-82
2023/11/02 10:41:56;;;;;;;1.10;0.80;;;;;;;10.27;100.00;95646.63;5060439;28;20234;-83
2023/11/02 10:44:28;;;;;;;1.10;1.00;;;;;;;10.25;100.00;95638.88;5058850;28;20213;-81
2023/11/02 10:46:58;;;;;;;1.90;0.90;;;;;;;10.28;100.00;95637.72;5059315;28;20200;-82
2023/11/02 10:49:28;;;;;;;3.80;2.00;;;;;;;10.35;100.00;95622.88;5058464;28;20196;-82
2023/11/02 10:51:57;;;;;;;1.20;0.70;;;;;;;10.43;100.00;95621.06;5058381;28;20236;-82
2023/11/02 10:54:37;;;;;;;0.70;0.70;;;;;;;10.45;100.00;95605.06;5058968;28;20207;-82
2023/11/02 10:57:10;;;;;;;0.70;0.70;;;;;;;10.46;100.00;95609.34;5057185;28;20637;-83
2023/11/02 10:59:38;;;;;;;0.97;0.60;;;;;;;10.45;100.00;95603.22;5057042;28;20209;-80
2023/11/02 11:02:05;;;;;;;0.80;0.80;;;;;;;10.42;100.00;95602.75;5055047;28;20472;-80
2023/11/02 11:04:33;;;;;;;1.03;0.90;;;;;;;10.46;100.00;95602.22;5055474;28;20228;-81
2023/11/02 11:07:00;;;;;;;0.90;0.70;;;;;;;10.40;100.00;95605.53;5056013;28;20209;-81
2023/11/02 11:09:28;;;;;;;0.97;0.70;;;;;;;10.44;100.00;95593.66;5057367;28;20231;-81
2023/11/02 11:11:59;;;;;;;1.40;0.50;;;;;;;10.43;100.00;95588.53;5056024;28;20321;-81
2023/11/02 11:14:27;;;;;;;2.03;1.47;;;;;;;10.45;100.00;95589.22;5058024;28;20657;-81
2023/11/02 11:16:56;;;;;;;2.57;1.73;;;;;;;10.42;100.00;95600.09;5056992;28;20730;-82
2023/11/02 11:19:23;;;;;;;1.63;0.70;;;;;;;10.43;100.00;95609.66;5056852;28;20221;-81
2023/11/02 11:21:52;;;;;;;1.20;0.70;;;;;;;10.42;100.00;95608.84;5057859;28;20249;-81
2023/11/02 11:24:21;;;;;;;1.83;0.60;;;;;;;10.49;100.00;95606.34;5058960;28;20255;-81
2023/11/02 11:26:50;;;;;;;0.90;0.60;;;;;;;10.50;100.00;95594.81;5068481;28;20280;-81
2023/11/02 11:29:35;;;;;;;0.60;0.60;;;;;;;10.49;100.00;95604.56;5065356;28;20220;-83
2023/11/02 11:32:04;;;;;;;0.83;0.50;;;;;;;10.48;100.00;95596.78;5062696;28;20237;-83
2023/11/02 11:35:09;;;;;;;0.50;0.50;;;;;;;10.46;100.00;95609.34;5057509;28;20219;-80
2023/11/02 11:37:40;;;;;;;0.93;0.60;;;;;;;10.39;100.00;95592.53;5057465;28;20217;-83
2023/11/02 11:40:10;;;;;;;0.57;0.50;;;;;;;10.42;100.00;95597.47;5062739;28;20296;-82
2023/11/02 11:42:56;;;;;;;0.70;0.53;;;;;;;10.42;100.00;95587.72;5061234;28;20599;-83